Time;durP1;ratioP1;P1;durP2;ratioP2;P2;SDS_P1;SDS_P2;PMS_P1;PMS_P2;Temp;Humidity;BMP_temperature;BMP_pressure;BME280_temperature;BME280_humidity;BME280_pressure;Samples;Min_cycle;Max_cycle;Signal;HPM_P1;HPM_P2
2021/04/06 00:03:57;;;;;;;;;;;;;;;;;;;;;
2021/04/06 09:15:39;;;;;;;3.22;1.35;;;6.40;71.70;;;;;;4939925;23;20114;-93
2021/04/06 09:22:34;;;;;;;1.63;1.25;;;6.30;71.90;;;;;;4850170;29;20037;-93
2021/04/06 09:25:51;;;;;;;5.55;1.50;;;6.30;71.60;;;;;;4797547;29;20051;-93
2021/04/06 09:29:15;;;;;;;1.33;1.13;;;6.20;71.60;;;;;;4828292;29;20152;-93
2021/04/06 09:32:14;;;;;;;6.53;2.15;;;6.10;73.00;;;;;;4863368;29;20405;-95
2021/04/06 09:34:44;;;;;;;2.88;1.30;;;6.00;74.40;;;;;;4891580;29;20048;-95
2021/04/06 09:40:30;;;;;;;3.72;1.65;;;5.60;78.50;;;;;;4921055;29;20028;-93
2021/04/06 09:42:59;;;;;;;5.57;1.73;;;5.30;84.50;;;;;;4909780;29;20107;-94
2021/04/06 09:45:51;;;;;;;5.18;1.70;;;4.80;87.60;;;;;;4909632;29;20269;-95
2021/04/06 09:48:20;;;;;;;5.57;1.60;;;4.40;90.10;;;;;;4909150;29;20055;-94
2021/04/06 09:51:19;;;;;;;3.92;1.90;;;4.20;90.40;;;;;;4885557;29;20392;-94
2021/04/06 09:53:45;;;;;;;4.28;1.70;;;4.20;90.80;;;;;;4888550;29;20667;-93
2021/04/06 09:56:11;;;;;;;1.77;1.60;;;4.10;91.00;;;;;;4924687;29;20051;-94
2021/04/06 09:58:41;;;;;;;3.30;1.58;;;4.00;91.30;;;;;;4908528;29;20036;-94
2021/04/06 10:01:25;;;;;;;3.28;1.67;;;3.90;91.60;;;;;;4910211;29;20051;-93
2021/04/06 10:07:10;;;;;;;3.72;1.23;;;4.10;91.20;;;;;;4923636;29;20044;-92
2021/04/06 10:09:50;;;;;;;10.48;1.55;;;4.20;91.20;;;;;;4908800;29;20347;-93
2021/04/06 10:12:22;;;;;;;4.68;1.80;;;4.20;91.70;;;;;;4909375;29;20411;-90
2021/04/06 10:14:49;;;;;;;3.60;1.67;;;4.30;91.70;;;;;;4911594;29;20043;-92
2021/04/06 10:17:17;;;;;;;4.70;1.40;;;4.40;91.70;;;;;;4908851;29;20617;-93
2021/04/06 10:19:58;;;;;;;5.35;1.70;;;4.60;91.20;;;;;;4908355;29;20046;-93
2021/04/06 10:22:25;;;;;;;6.97;2.17;;;4.60;91.70;;;;;;4909075;29;20090;-93
2021/04/06 10:25:04;;;;;;;5.45;1.52;;;4.80;91.20;;;;;;4908585;29;20126;-92
2021/04/06 10:27:42;;;;;;;7.18;1.90;;;4.90;91.60;;;;;;4908347;29;20048;-93
2021/04/06 10:30:11;;;;;;;6.32;2.20;;;5.20;89.00;;;;;;4923822;29;20032;-92
2021/04/06 10:32:42;;;;;;;5.63;1.92;;;5.40;88.30;;;;;;4908528;29;20036;-93
2021/04/06 10:35:13;;;;;;;4.03;1.88;;;5.60;87.10;;;;;;4908564;29;20419;-93
2021/04/06 10:37:43;;;;;;;4.20;1.80;;;5.80;88.80;;;;;;4914565;29;20039;-93
2021/04/06 10:40:40;;;;;;;2.55;1.58;;;6.00;87.20;;;;;;4908582;29;20047;-93
2021/04/06 10:43:10;;;;;;;6.15;1.88;;;6.20;85.80;;;;;;4898031;29;20071;-93
2021/04/06 10:45:44;;;;;;;3.83;1.90;;;6.20;83.10;;;;;;4908316;29;20067;-92
2021/04/06 10:48:13;;;;;;;5.40;1.77;;;6.40;84.40;;;;;;4908006;29;20311;-92
2021/04/06 10:50:44;;;;;;;3.95;1.85;;;6.60;83.70;;;;;;4910906;29;20040;-92
2021/04/06 10:53:21;;;;;;;4.82;1.55;;;6.70;83.40;;;;;;4907649;29;20052;-93
2021/04/06 10:55:51;;;;;;;4.45;2.22;;;6.90;80.10;;;;;;4907538;29;20043;-92
2021/04/06 10:58:21;;;;;;;5.05;1.73;;;7.10;80.90;;;;;;4907066;29;20104;-93
2021/04/06 11:01:03;;;;;;;3.05;1.73;;;7.50;84.30;;;;;;4907735;29;20048;-93
2021/04/06 11:03:39;;;;;;;2.80;1.50;;;7.80;77.20;;;;;;4907575;29;20039;-94
2021/04/06 11:06:14;;;;;;;5.78;2.00;;;7.90;75.60;;;;;;4908250;29;20091;-92
2021/04/06 11:08:54;;;;;;;4.57;1.20;;;7.90;74.50;;;;;;4907728;29;20051;-92
2021/04/06 11:11:26;;;;;;;5.25;1.40;;;7.50;77.10;;;;;;4907538;29;20036;-92
2021/04/06 11:14:04;;;;;;;3.15;1.65;;;7.10;78.80;;;;;;4908211;29;20040;-93
2021/04/06 11:16:30;;;;;;;7.75;1.65;;;6.90;83.40;;;;;;4907547;29;20327;-92
2021/04/06 11:18:58;;;;;;;2.72;1.30;;;6.90;84.00;;;;;;4907895;29;20036;-91
2021/04/06 11:21:23;;;;;;;3.00;1.60;;;7.00;80.10;;;;;;4923227;29;20037;-92
2021/04/06 11:23:49;;;;;;;6.97;1.65;;;7.00;79.30;;;;;;4907369;29;20039;-92
2021/04/06 11:26:15;;;;;;;4.72;1.65;;;7.00;81.30;;;;;;4907299;29;20075;-91
2021/04/06 11:28:41;;;;;;;3.63;1.10;;;7.20;77.60;;;;;;4907189;29;20079;-93
2021/04/06 11:31:13;;;;;;;4.68;1.30;;;7.10;75.70;;;;;;4907640;29;20044;-93
2021/04/06 11:33:52;;;;;;;4.07;1.10;;;6.80;76.60;;;;;;4907480;29;20056;-93
2021/04/06 11:36:23;;;;;;;5.07;1.35;;;6.60;79.60;;;;;;4907936;29;20040;-94
2021/04/06 11:39:06;;;;;;;4.78;1.40;;;6.40;80.70;;;;;;4911133;29;20054;-93
2021/04/06 11:41:48;;;;;;;1.85;1.25;;;6.10;84.50;;;;;;4908806;29;20083;-94
2021/04/06 11:44:15;;;;;;;1.05;0.93;;;5.90;85.60;;;;;;4907355;29;20139;-94
2021/04/06 11:46:46;;;;;;;3.45;1.50;;;5.60;86.00;;;;;;4907350;29;20044;-94
2021/04/06 11:52:36;;;;;;;5.00;1.08;;;5.40;85.50;;;;;;4925022;29;20122;-94
2021/04/06 11:55:03;;;;;;;1.00;0.70;;;5.30;86.80;;;;;;4907727;29;20387;-92
2021/04/06 11:57:28;;;;;;;2.10;0.90;;;5.50;84.80;;;;;;4906927;29;20047;-91
2021/04/06 11:59:55;;;;;;;3.28;1.38;;;5.60;86.10;;;;;;4907058;29;20047;-91
2021/04/06 12:02:21;;;;;;;2.30;0.90;;;5.80;86.90;;;;;;4907047;29;20043;-90
2021/04/06 12:04:47;;;;;;;2.10;1.02;;;6.20;81.70;;;;;;4908612;29;20207;-91
2021/04/06 12:07:12;;;;;;;2.85;0.77;;;6.40;81.40;;;;;;4907240;29;20055;-93
2021/04/06 12:09:38;;;;;;;2.90;0.93;;;6.30;79.60;;;;;;4907238;29;20728;-93
2021/04/06 12:12:04;;;;;;;2.67;0.88;;;6.10;82.00;;;;;;4906770;29;20100;-94
2021/04/06 12:14:37;;;;;;;2.55;0.80;;;5.70;81.10;;;;;;4905971;29;20040;-93
2021/04/06 12:17:02;;;;;;;1.33;0.70;;;5.30;84.70;;;;;;4907498;29;20131;-93
2021/04/06 12:19:28;;;;;;;1.05;0.60;;;4.90;83.90;;;;;;4906533;29;20411;-93
2021/04/06 12:21:54;;;;;;;1.00;1.00;;;4.70;85.70;;;;;;4907121;29;20127;-93
2021/04/06 12:24:20;;;;;;;2.33;0.75;;;4.60;85.00;;;;;;4906611;29;20040;-93
2021/04/06 12:26:45;;;;;;;1.75;0.90;;;4.50;85.40;;;;;;4907604;29;20107;-93
2021/04/06 12:29:47;;;;;;;;;;;;;;;;;;;;;
2021/04/06 12:32:12;;;;;;;1.83;0.50;;;4.60;87.20;;;;;;4929524;29;20095;-93
2021/04/06 12:34:40;;;;;;;2.83;0.80;;;4.90;87.20;;;;;;4910415;29;20355;-92
2021/04/06 12:37:06;;;;;;;2.05;0.60;;;5.30;85.60;;;;;;4906540;29;20044;-91
2021/04/06 12:39:32;;;;;;;3.35;0.98;;;5.80;77.30;;;;;;4906029;29;20076;-90
2021/04/06 12:41:57;;;;;;;4.38;0.80;;;6.30;76.30;;;;;;4923013;29;20067;-91
2021/04/06 12:44:23;;;;;;;6.28;1.13;;;6.70;76.40;;;;;;4906132;29;20417;-91
2021/04/06 12:46:48;;;;;;;4.95;1.23;;;7.00;71.70;;;;;;4906002;29;20351;-91
2021/04/06 12:49:14;;;;;;;1.95;0.95;;;7.30;70.30;;;;;;4906632;29;20040;-93
2021/04/06 12:51:47;;;;;;;4.18;1.35;;;7.60;71.60;;;;;;4906732;29;20043;-93
2021/04/06 12:54:13;;;;;;;2.63;1.02;;;7.60;71.30;;;;;;4906686;29;20363;-93
2021/04/06 12:56:38;;;;;;;1.65;1.25;;;7.20;75.30;;;;;;4922805;29;20145;-93
2021/04/06 12:59:04;;;;;;;4.78;1.17;;;6.90;78.00;;;;;;4906414;29;20342;-92
2021/04/06 13:01:30;;;;;;;5.25;1.10;;;6.50;78.50;;;;;;4906573;29;20260;-93
2021/04/06 13:03:55;;;;;;;2.55;1.17;;;6.20;80.20;;;;;;4906715;29;20048;-94
2021/04/06 13:06:21;;;;;;;1.95;1.13;;;5.90;80.40;;;;;;4906614;29;20347;-93
2021/04/06 13:08:46;;;;;;;3.00;1.10;;;5.60;82.20;;;;;;4906072;29;20092;-92
2021/04/06 13:11:12;;;;;;;1.75;1.15;;;5.60;83.30;;;;;;4906313;29;20406;-92
2021/04/06 13:13:38;;;;;;;3.92;1.02;;;5.50;85.00;;;;;;4906114;29;20062;-92
2021/04/06 13:16:14;;;;;;;;;;;;;;;;;;;;;
2021/04/06 13:18:40;;;;;;;3.03;1.05;;;5.80;81.10;;;;;;4922176;29;20036;-93
2021/04/06 13:21:06;;;;;;;1.50;0.95;;;6.00;78.70;;;;;;4905954;29;20507;-92
2021/04/06 13:23:31;;;;;;;2.65;0.93;;;6.20;79.40;;;;;;4905957;29;20040;-91
2021/04/06 13:26:00;;;;;;;2.50;0.98;;;6.50;81.50;;;;;;4908121;29;20051;-92
2021/04/06 13:28:26;;;;;;;1.83;0.77;;;6.80;77.80;;;;;;4909767;29;20048;-93
2021/04/06 13:31:05;;;;;;;;;;;;;;;;;;;;;
2021/04/06 13:33:31;;;;;;;3.67;1.83;;;7.30;74.30;;;;;;4925647;29;20036;-94
2021/04/06 13:42:07;;;;;;;1.67;1.10;;;7.50;74.70;;;;;;4904018;29;20092;-93
2021/04/06 13:44:36;;;;;;;2.20;1.13;;;7.70;71.40;;;;;;4909567;29;20040;-92
2021/04/06 13:47:04;;;;;;;1.05;0.90;;;7.70;70.90;;;;;;4885620;29;20092;-93
2021/04/06 13:49:52;;;;;;;3.65;1.05;;;7.70;71.20;;;;;;4871068;29;20037;-94
2021/04/06 13:52:18;;;;;;;3.30;1.05;;;7.80;72.30;;;;;;4875974;29;20040;-91
2021/04/06 13:54:43;;;;;;;2.60;1.20;;;8.10;69.80;;;;;;4871556;29;20041;-92
2021/04/06 13:57:15;;;;;;;3.10;0.77;;;8.20;69.00;;;;;;4870625;29;20037;-94
2021/04/06 13:59:41;;;;;;;2.25;0.93;;;8.40;67.50;;;;;;4870907;29;20041;-92
2021/04/06 14:02:07;;;;;;;4.50;1.40;;;8.40;68.10;;;;;;4893271;29;20048;-92
2021/04/06 14:04:37;;;;;;;2.13;0.80;;;8.50;67.60;;;;;;4912615;29;20067;-93
2021/04/06 14:07:02;;;;;;;2.75;0.88;;;8.50;69.00;;;;;;4909384;29;20083;-91
2021/04/06 14:13:05;;;;;;;3.38;1.30;;;8.20;67.70;;;;;;4924654;29;20036;-93
2021/04/06 14:15:37;;;;;;;2.38;0.82;;;8.00;67.50;;;;;;4940517;29;20040;-93
2021/04/06 14:18:05;;;;;;;2.42;1.10;;;7.70;67.30;;;;;;4909256;29;20079;-93
2021/04/06 14:20:50;;;;;;;2.08;0.88;;;7.50;67.60;;;;;;4908969;29;20102;-94
2021/04/06 14:26:07;;;;;;;2.05;1.00;;;7.00;68.00;;;;;;4924832;29;20295;-92
2021/04/06 14:28:42;;;;;;;2.40;0.98;;;6.70;69.40;;;;;;4908453;29;20123;-94
2021/04/06 14:31:07;;;;;;;1.13;0.73;;;6.50;69.60;;;;;;4908188;29;20349;-94
2021/04/06 14:33:36;;;;;;;3.88;0.75;;;6.20;70.20;;;;;;4908589;29;20040;-93
2021/04/06 14:36:26;;;;;;;3.45;1.13;;;6.00;72.50;;;;;;4908322;29;20107;-96
2021/04/06 14:39:15;;;;;;;1.80;0.75;;;5.70;72.10;;;;;;4908550;29;20044;-92
2021/04/06 14:41:41;;;;;;;1.15;0.80;;;5.50;72.40;;;;;;4918787;29;20067;-92
2021/04/06 14:44:07;;;;;;;2.47;0.85;;;5.30;74.50;;;;;;4908907;29;20051;-92
2021/04/06 14:46:59;;;;;;;3.67;1.02;;;5.20;76.00;;;;;;4909096;29;20418;-95
2021/04/06 14:49:24;;;;;;;2.37;0.87;;;5.10;76.10;;;;;;4908154;29;20079;-93
2021/04/06 14:51:50;;;;;;;2.22;1.05;;;5.20;77.10;;;;;;4910118;29;20036;-92
2021/04/06 14:54:34;;;;;;;2.05;1.20;;;5.10;76.10;;;;;;4908506;29;20414;-94
2021/04/06 14:57:02;;;;;;;1.42;1.13;;;5.10;75.70;;;;;;4908098;29;20107;-93
2021/04/06 14:59:28;;;;;;;1.88;1.20;;;5.10;75.40;;;;;;4907800;29;20157;-92
2021/04/06 15:01:54;;;;;;;3.50;1.33;;;5.10;76.00;;;;;;4907881;29;20107;-93
2021/04/06 15:04:21;;;;;;;2.22;1.10;;;5.10;77.20;;;;;;4908404;29;20041;-93
2021/04/06 15:06:48;;;;;;;4.70;1.95;;;5.10;76.60;;;;;;4907578;29;20059;-92
2021/04/06 15:09:21;;;;;;;6.50;2.88;;;4.90;78.60;;;;;;4908281;29;20285;-92
2021/04/06 15:11:49;;;;;;;3.15;1.50;;;4.90;79.00;;;;;;4908150;29;20032;-91
2021/04/06 15:14:17;;;;;;;5.93;3.67;;;5.00;77.90;;;;;;4907457;29;20541;-91
2021/04/06 15:16:43;;;;;;;8.48;3.70;;;5.20;76.30;;;;;;4907812;29;20699;-91
2021/04/06 15:19:13;;;;;;;7.70;2.15;;;5.60;74.30;;;;;;4907400;29;20032;-92
2021/04/06 15:21:51;;;;;;;4.68;1.45;;;6.00;74.10;;;;;;4908207;29;20036;-92
2021/04/06 15:24:26;;;;;;;1.02;0.90;;;6.50;72.80;;;;;;4907574;29;20080;-92
2021/04/06 15:27:05;;;;;;;4.40;1.27;;;6.90;71.20;;;;;;4907650;29;20122;-92
2021/04/06 15:29:32;;;;;;;2.88;0.85;;;7.30;69.80;;;;;;4922943;29;20198;-92
2021/04/06 15:31:59;;;;;;;1.45;0.93;;;7.60;68.10;;;;;;4906976;29;20032;-91
2021/04/06 15:34:25;;;;;;;1.70;0.88;;;7.80;67.00;;;;;;4907254;29;20096;-92
2021/04/06 15:36:52;;;;;;;2.78;1.55;;;7.90;62.50;;;;;;4907722;29;20040;-92
2021/04/06 15:39:27;;;;;;;1.95;1.10;;;7.90;62.60;;;;;;4907130;29;20036;-92
2021/04/06 15:41:54;;;;;;;2.85;0.82;;;8.00;61.20;;;;;;4910205;29;20078;-90
2021/04/06 15:44:22;;;;;;;2.70;1.20;;;7.90;62.20;;;;;;4907019;29;20082;-93
2021/04/06 15:46:57;;;;;;;1.30;1.00;;;7.90;62.10;;;;;;4907185;29;20044;-93
2021/04/06 15:49:23;;;;;;;2.90;1.15;;;7.90;62.80;;;;;;4906744;29;20043;-93
2021/04/06 15:52:01;;;;;;;3.03;0.88;;;7.90;63.60;;;;;;4907110;29;20399;-92
2021/04/06 15:54:37;;;;;;;1.20;0.95;;;7.80;62.80;;;;;;4906994;29;20642;-91
2021/04/06 15:57:21;;;;;;;2.92;1.60;;;7.70;61.80;;;;;;4906825;29;20404;-92
2021/04/06 16:20:48;;;;;;;2.20;0.98;;;7.30;63.70;;;;;;4914441;29;20074;-95
2021/04/06 16:23:14;;;;;;;2.13;0.85;;;7.10;64.10;;;;;;4906710;29;20123;-94
2021/04/06 16:36:21;;;;;;;1.75;0.93;;;6.90;63.50;;;;;;4846923;29;20111;-92
2021/04/06 16:39:16;;;;;;;7.55;1.02;;;6.70;64.70;;;;;;4842605;29;20334;-94
2021/04/06 16:42:01;;;;;;;2.30;0.95;;;6.30;65.40;;;;;;4848789;29;20129;-95
2021/04/06 16:48:12;;;;;;;2.75;1.15;;;5.90;68.10;;;;;;4846683;29;20048;-95
2021/04/06 17:25:06;;;;;;;2.25;1.45;;;5.20;80.60;;;;;;4866117;29;20036;-94
2021/04/06 17:31:13;;;;;;;2.95;1.10;;;4.60;83.00;;;;;;4934779;29;20031;-93
2021/04/06 17:33:39;;;;;;;3.13;1.63;;;4.50;84.30;;;;;;4909813;29;20308;-94
2021/04/06 17:36:21;;;;;;;4.78;1.48;;;4.20;85.90;;;;;;4909782;29;20039;-94
2021/04/06 17:45:46;;;;;;;4.05;1.10;;;3.60;91.00;;;;;;4859236;29;20029;-93
2021/04/06 17:48:33;;;;;;;1.80;1.33;;;3.30;91.70;;;;;;4908821;29;20319;-92
2021/04/06 17:53:55;;;;;;;2.50;1.35;;;3.00;93.00;;;;;;4925347;29;20398;-93
2021/04/06 17:56:21;;;;;;;2.30;1.58;;;3.00;93.00;;;;;;4909043;29;20051;-94
2021/04/06 17:58:46;;;;;;;3.70;1.50;;;2.90;92.80;;;;;;4908877;29;20392;-94
2021/04/06 18:01:17;;;;;;;1.50;1.08;;;2.90;92.80;;;;;;4909296;29;20044;-94
2021/04/06 18:03:43;;;;;;;1.20;1.02;;;2.90;92.80;;;;;;4908801;29;20044;-93
2021/04/06 18:06:18;;;;;;;3.63;1.65;;;2.90;93.10;;;;;;4911057;29;20047;-94
2021/04/06 18:08:44;;;;;;;1.88;1.00;;;2.80;93.20;;;;;;4908832;29;20130;-93
2021/04/06 18:11:25;;;;;;;3.15;1.25;;;2.80;93.20;;;;;;4907840;29;20050;-93
2021/04/06 18:13:50;;;;;;;1.10;1.10;;;2.80;92.80;;;;;;4908457;29;20040;-95
2021/04/06 18:16:17;;;;;;;0.85;0.80;;;2.80;93.00;;;;;;4908725;29;20036;-94
2021/04/06 18:18:42;;;;;;;5.35;1.98;;;2.80;92.60;;;;;;4908133;29;20110;-94
2021/04/06 18:21:19;;;;;;;1.88;1.20;;;2.80;92.50;;;;;;4908505;29;20040;-95
2021/04/06 18:23:50;;;;;;;1.17;0.80;;;2.90;92.50;;;;;;4923718;29;20036;-94
2021/04/06 18:26:15;;;;;;;0.85;0.77;;;2.90;92.60;;;;;;4908745;29;20064;-94
2021/04/06 18:28:41;;;;;;;1.48;0.80;;;2.90;92.50;;;;;;4908269;29;20106;-95
2021/04/06 18:31:11;;;;;;;1.35;1.25;;;3.00;92.50;;;;;;4908409;29;20127;-93
2021/04/06 18:33:39;;;;;;;1.13;0.90;;;3.00;92.40;;;;;;4909007;29;20044;-93
2021/04/06 18:36:11;;;;;;;1.70;1.50;;;3.00;92.40;;;;;;4908188;29;20123;-92
2021/04/06 18:38:42;;;;;;;2.10;1.17;;;3.10;92.30;;;;;;4908182;29;20036;-92
2021/04/06 18:41:14;;;;;;;1.70;1.20;;;3.20;92.20;;;;;;4908438;29;20103;-93
2021/04/06 18:43:40;;;;;;;2.25;1.20;;;3.20;92.00;;;;;;4907973;29;20437;-93
2021/04/06 18:46:07;;;;;;;2.75;1.17;;;3.20;92.10;;;;;;4907899;29;20135;-93
2021/04/06 18:48:33;;;;;;;1.17;1.08;;;3.10;92.40;;;;;;4908128;29;20039;-94
2021/04/06 18:51:03;;;;;;;2.42;2.08;;;3.00;92.50;;;;;;4908184;29;20100;-93
2021/04/06 18:53:29;;;;;;;1.65;1.23;;;3.00;92.60;;;;;;4907876;29;20052;-94
2021/04/06 18:57:16;;;;;;;1.00;0.90;;;3.00;92.50;;;;;;4909396;29;20141;-95
